x

Buoy B01 - Western Maine Shelf (44030) Wave Buoy

3:04 - Sun 26th Feb 2017 All times are EST. -5 hours from GMT.

  • Sig Wave height 3.3ft
  • Peak Period 3s
  • Wind
    22mph, 29mph gusts
  • Sea Temp 41°f
  • Air Temp 42°f
  • Sea Pressure 997.4mb
  • Buoy B01 - Western Maine Shelf
  • Buoy B01 - Western Maine Shelf

More Historic Weather Station data

Upgrade to MSW Pro to gain access to the past 30 days of data for over 8000 Wavebouys and Weather Stations around the globe.

Join Pro

Comparision Forecast

View Surf forecast
   
dim. 02/26 3:04 3.5ft 3s 22 29 mph 997.4mb 41f 42f
2:04 2.5ft 3s 25 27 mph 996.2mb 41f 43f
1:04 2.5ft 5s 20 25 mph 995.6mb 40f 44f
12:04 2.5ft 4s 20 27 mph 996.4mb 40f 46f
sam. 02/25 11:04 2.5ft 4s 11 13 mph 996.7mb 40f 43f
10:04 2.5ft 4s 13 16 mph 996.2mb 40f 44f
9:04 2.5ft 4s 9 11 mph 997.2mb 40f 43f
8:04 2.5ft 4s 11 13 mph 998.7mb 40f 44f
7:04 3.5ft 4s 13 16 mph 999.8mb 40f 45f
6:04 3.5ft 5s 16 18 mph 1000.3mb 41f 45f
5:04 4.5ft 11s 20 25 mph 1001.3mb 41f 45f
4:04 2.5ft 5s 16 20 mph 1003.3mb 41f 45f
3:04 3ft 11s 13 16 mph 1004.4mb 41f 45f
2:04 3.5ft 11s 7 9 mph 1005.5mb 41f 45f
1:04 2.5ft 4s 13 16 mph 1006.1mb 41f 45f
12:04 3.5ft 11s 9 11 mph 1007.3mb 41f 45f
11:04 3ft 11s 4
mph
1008.6mb 40f 42f
10:04 2.5ft 4s 7 11 mph 1009.5mb 40f 43f
9:04 3ft 4s 9 13 mph 1010.1mb 40f 43f
8:04 2.5ft 5s 9 11 mph 1010.3mb 40f 43f
ven. 02/24 8:04 4.5ft 11s 20 22 mph 1010.3mb 40f 47f
7:04 3.5ft 5s 18 22 mph 1010.4mb 40f 47f
6:04 4.5ft 4s 20 22 mph 1010.1mb 40f 47f
5:04 3.5ft 11s 9 11 mph 1010.1mb 41f 46f
4:04 3.5ft 11s 2 4 mph 1010.2mb 41f 47f
3:04 3.5ft 11s  -  2 mph 1010.6mb 41f 48f
2:04 4ft 11s 4 7 mph 1011.1mb 40f 44f
1:04 4.5ft 11s 2 4 mph 1012mb 41f 44f
12:04 3.5ft 11s 7
mph
1012.5mb 41f 44f
11:04 3.5ft 11s 9 11 mph 1012.8mb 40f 44f
10:04 3.5ft 11s 2 4 mph 1013.1mb 40f 44f
9:04 3.5ft 11s 7 9 mph 1013mb 40f 44f
8:04 3.5ft 11s 9
mph
1013mb 40f 42f
7:04 4ft 11s 9
mph
1012.5mb 40f 42f
6:04 3.5ft 11s 7 9 mph 1012.3mb 40f 42f
5:04 4.5ft 11s 4 7 mph 1012mb 40f 42f
4:04 4.5ft 11s 9 11 mph 1011.5mb 40f 42f
3:04 4.5ft 11s 9 11 mph 1011.1mb 40f 43f
12:04 4.5ft 11s 9 11 mph 1010mb 39f 43f
jeu. 02/23 11:04 5ft 11s 16
mph
1009.3mb 40f 44f
10:04 5ft 11s 16 18 mph 1008.6mb 40f 45f
9:04 5ft 11s 16 18 mph 1008.2mb 40f 45f
8:04 3ft 5s 13 16 mph 1007.6mb 40f 45f
7:04 5ft 11s 18 20 mph 1006.8mb 40f 46f
6:04 5ft 11s 13 18 mph 1006.5mb 40f 45f
5:04 5ft 11s 16 18 mph 1005.6mb 40f 46f
4:04 4ft 11s 20 22 mph 1004.7mb 40f 47f
3:04 4ft 11s 13 18 mph 1006mb 41f 44f
2:04 4ft 11s 11
mph
1006.7mb 41f 44f
1:04 3.5ft 11s 13
mph
1007.8mb 41f 42f
12:04 3ft 11s 9 11 mph 1008.7mb 41f 42f
11:04 2.5ft 11s 9 11 mph 1009.6mb 41f 42f
10:04 2.5ft 11s 9
mph
1010.3mb 41f 40f
9:04 3ft 8s 2
mph
1010.9mb 41f 43f
8:04 2.5ft 11s 7
mph
1010.9mb 41f 38f
7:04 3ft 11s 4 7 mph 1011mb 40f 38f
6:04 3ft 11s 4
mph
1010.8mb 40f 37f
5:04 3.5ft 11s 2 4 mph 1010.8mb 40f 40f